Time;durP1;ratioP1;P1;durP2;ratioP2;P2;SDS_P1;SDS_P2;PMS_P1;PMS_P2;Temp;Humidity;BMP_temperature;BMP_pressure;BME280_temperature;BME280_humidity;BME280_pressure;Samples;Min_cycle;Max_cycle;Signal;HPM_P1;HPM_P2
2024/03/28 00:00:08;;;;;;;13.10;7.80;;;;;;;7.61;100.00;99176.88;105423;1249;72520;-63
2024/03/28 00:02:35;;;;;;;8.50;7.30;;;;;;;7.55;100.00;99174.46;105150;1254;61410;-60
2024/03/28 00:05:02;;;;;;;7.80;7.00;;;;;;;7.51;100.00;99181.24;104938;1264;61707;-62
2024/03/28 00:07:29;;;;;;;9.10;6.50;;;;;;;7.53;100.00;99176.48;104732;1264;74769;-61
2024/03/28 00:09:56;;;;;;;7.40;6.60;;;;;;;7.56;100.00;99178.80;104948;1269;69314;-61
2024/03/28 00:12:23;;;;;;;10.00;7.60;;;;;;;7.61;100.00;99176.02;104907;1251;71414;-60
2024/03/28 00:14:49;;;;;;;9.10;6.70;;;;;;;7.69;100.00;99176.55;104899;1255;61260;-62
2024/03/28 00:17:16;;;;;;;6.60;5.90;;;;;;;7.70;100.00;99171.12;104878;1254;61365;-67
2024/03/28 00:19:43;;;;;;;7.70;6.30;;;;;;;7.72;100.00;99168.96;104893;1254;74474;-64
2024/03/28 00:22:10;;;;;;;6.40;5.70;;;;;;;7.73;100.00;99167.67;104827;1254;68869;-62
2024/03/28 00:24:36;;;;;;;8.50;6.00;;;;;;;7.81;100.00;99164.77;104710;1251;72838;-62
2024/03/28 00:27:04;;;;;;;5.90;5.30;;;;;;;7.85;100.00;99163.77;104801;1266;61700;-62
2024/03/28 00:29:31;;;;;;;8.40;5.70;;;;;;;7.86;100.00;99162.48;105083;1257;61320;-62
2024/03/28 00:31:58;;;;;;;5.90;5.30;;;;;;;7.90;100.00;99163.20;104978;1250;75510;-63
2024/03/28 00:34:25;;;;;;;6.50;5.80;;;;;;;7.84;100.00;99158.55;104991;1263;69287;-62
2024/03/28 00:36:51;;;;;;;6.50;5.70;;;;;;;7.91;100.00;99155.66;105011;1253;72587;-62
2024/03/28 00:39:18;;;;;;;5.30;4.90;;;;;;;7.94;100.00;99153.23;104973;1256;61368;-62
2024/03/28 00:41:45;;;;;;;6.10;5.50;;;;;;;8.00;100.00;99147.61;105900;1253;60586;-62
2024/03/28 00:44:13;;;;;;;6.00;5.40;;;;;;;8.05;100.00;99151.41;105365;1253;74770;-62
2024/03/28 00:46:39;;;;;;;5.80;5.20;;;;;;;8.11;100.00;99147.70;104530;1251;69516;-63
2024/03/28 00:49:06;;;;;;;8.00;5.50;;;;;;;8.15;100.00;99145.44;105885;1251;72685;-62
2024/03/28 00:51:33;;;;;;;5.60;4.90;;;;;;;8.16;100.00;99143.64;104374;1257;61392;-62
2024/03/28 00:54:00;;;;;;;9.40;4.80;;;;;;;8.15;100.00;99141.40;105132;1251;61330;-62
2024/03/28 00:56:26;;;;;;;6.00;5.00;;;;;;;8.12;100.00;99140.50;104849;1263;73480;-62
2024/03/28 00:58:53;;;;;;;5.10;4.60;;;;;;;8.17;100.00;99139.94;105525;1251;69970;-62
2024/03/28 01:01:20;;;;;;;6.60;4.70;;;;;;;8.17;100.00;99136.27;105197;1253;72053;-62
2024/03/28 01:03:47;;;;;;;5.50;4.90;;;;;;;8.22;100.00;99135.36;105200;1252;61602;-62
2024/03/28 01:06:14;;;;;;;5.10;4.60;;;;;;;8.19;100.00;99134.11;104914;1256;61343;-62
2024/03/28 01:08:41;;;;;;;5.30;4.70;;;;;;;8.20;100.00;99127.25;104973;1263;75066;-62
2024/03/28 01:11:08;;;;;;;5.20;4.40;;;;;;;8.28;100.00;99127.95;105290;1250;69080;-62
2024/03/28 01:13:35;;;;;;;5.20;4.60;;;;;;;8.29;100.00;99122.34;105482;1253;72011;-61
2024/03/28 01:16:02;;;;;;;5.20;4.70;;;;;;;8.29;100.00;99117.46;104836;1253;60727;-62
2024/03/28 01:18:29;;;;;;;5.00;4.50;;;;;;;8.29;100.00;99120.09;105233;1251;61266;-62
2024/03/28 01:20:56;;;;;;;6.30;5.00;;;;;;;8.32;100.00;99121.14;104939;1264;73545;-62
2024/03/28 01:23:23;;;;;;;5.90;5.20;;;;;;;8.32;100.00;99119.77;105046;1253;70171;-62
2024/03/28 01:25:50;;;;;;;5.80;5.20;;;;;;;8.33;100.00;99115.55;105365;1256;72407;-62
2024/03/28 01:28:17;;;;;;;6.70;5.10;;;;;;;8.27;100.00;99114.20;105182;1254;61351;-62
2024/03/28 01:30:45;;;;;;;5.10;4.60;;;;;;;8.27;100.00;99115.42;105026;1255;60591;-62
2024/03/28 01:33:11;;;;;;;5.50;5.00;;;;;;;8.29;100.00;99120.77;105315;1254;74648;-62
2024/03/28 01:35:39;;;;;;;5.40;4.90;;;;;;;8.35;100.00;99118.77;105291;1250;69330;-64
2024/03/28 01:38:06;;;;;;;5.90;5.30;;;;;;;8.36;100.00;99117.48;105993;1254;73462;-63
2024/03/28 01:40:33;;;;;;;5.60;5.10;;;;;;;8.37;100.00;99116.92;104832;1252;61282;-61
2024/03/28 01:43:05;;;;;;;8.00;5.40;;;;;;;8.35;100.00;99117.55;104633;1256;61410;-61
2024/03/28 01:45:32;;;;;;;5.00;4.20;;;;;;;8.39;100.00;99120.00;104921;1254;74826;-61
2024/03/28 01:47:59;;;;;;;6.10;4.70;;;;;;;8.48;100.00;99112.81;104703;1254;69922;-61
2024/03/28 01:50:28;;;;;;;5.40;4.70;;;;;;;8.38;100.00;99110.61;104756;1254;72883;-61
2024/03/28 01:52:55;;;;;;;5.20;4.70;;;;;;;8.38;100.00;99106.92;104660;1254;61351;-62
2024/03/28 01:55:21;;;;;;;5.10;4.60;;;;;;;8.42;100.00;99105.06;105171;1255;62908;-61
2024/03/28 01:57:49;;;;;;;5.80;4.80;;;;;;;8.38;100.00;99109.02;104780;1251;75397;-60
2024/03/28 02:00:17;;;;;;;5.60;5.10;;;;;;;8.36;100.00;99105.64;105031;1257;69093;-60
2024/03/28 02:02:45;;;;;;;4.90;4.40;;;;;;;8.38;100.00;99111.11;104661;1267;73521;-61
2024/03/28 02:05:13;;;;;;;4.40;4.00;;;;;;;8.39;100.00;99111.61;104822;1265;61767;-61
2024/03/28 02:07:39;;;;;;;4.70;4.30;;;;;;;8.42;100.00;99108.88;105215;1257;61336;-62
2024/03/28 02:10:07;;;;;;;5.60;5.00;;;;;;;8.43;100.00;99103.27;104810;1267;74962;-62
2024/03/28 02:12:35;;;;;;;5.50;4.30;;;;;;;8.41;100.00;99103.86;104755;1257;68490;-61
2024/03/28 02:15:03;;;;;;;4.60;4.10;;;;;;;8.42;100.00;99101.05;104760;1251;72796;-65
2024/03/28 02:17:30;;;;;;;5.90;4.10;;;;;;;8.43;100.00;99096.83;105094;1257;61316;-61
2024/03/28 02:19:57;;;;;;;4.20;3.90;;;;;;;8.44;100.00;99099.02;104671;1267;61355;-62
2024/03/28 02:22:24;;;;;;;4.90;4.20;;;;;;;8.45;100.00;99097.95;104452;1269;75352;-61
2024/03/28 02:24:51;;;;;;;5.10;4.00;;;;;;;8.47;100.00;99095.59;104702;1267;70049;-62
2024/03/28 02:27:18;;;;;;;5.70;4.50;;;;;;;8.49;100.00;99095.16;104448;1257;71848;-62
2024/03/28 02:29:45;;;;;;;7.20;4.20;;;;;;;8.50;100.00;99095.95;104734;1251;61355;-62
2024/03/28 02:32:12;;;;;;;4.80;4.20;;;;;;;8.54;100.00;99096.51;104867;1256;62148;-61
2024/03/28 02:34:39;;;;;;;4.50;4.10;;;;;;;8.56;100.00;99095.21;104733;1257;73140;-62
2024/03/28 02:37:06;;;;;;;4.20;3.80;;;;;;;8.64;100.00;99093.96;105052;1267;69876;-62
2024/03/28 02:39:33;;;;;;;4.40;4.00;;;;;;;8.71;100.00;99088.98;104952;1266;73714;-62
2024/03/28 02:42:00;;;;;;;4.40;3.80;;;;;;;8.83;100.00;99088.95;104565;1251;61348;-62
2024/03/28 02:44:27;;;;;;;4.00;3.60;;;;;;;8.84;100.00;99083.84;104637;1258;61355;-61
2024/03/28 02:46:54;;;;;;;4.60;4.20;;;;;;;8.67;100.00;99082.50;104431;1257;74839;-63
2024/03/28 02:49:21;;;;;;;4.20;3.80;;;;;;;8.57;100.00;99080.30;104881;1254;68561;-63
2024/03/28 02:51:48;;;;;;;5.00;3.70;;;;;;;8.50;100.00;99081.33;105175;1254;72960;-62
2024/03/28 02:54:15;;;;;;;4.60;3.90;;;;;;;8.58;100.00;99073.82;104603;1257;61352;-62
2024/03/28 02:56:42;;;;;;;4.70;4.20;;;;;;;8.62;100.00;99071.90;105119;1256;60342;-61
2024/03/28 02:59:09;;;;;;;4.80;3.70;;;;;;;8.56;100.00;99076.67;105290;1254;74773;-63
2024/03/28 03:01:36;;;;;;;4.50;3.90;;;;;;;8.55;100.00;99069.36;104803;1267;69428;-61
2024/03/28 03:04:03;;;;;;;4.50;3.70;;;;;;;8.54;100.00;99066.81;105120;1254;73777;-62
2024/03/28 03:06:30;;;;;;;4.00;3.40;;;;;;;8.58;100.00;99060.37;104828;1253;61358;-61
2024/03/28 03:08:57;;;;;;;3.90;3.40;;;;;;;8.71;100.00;99061.86;105258;1253;61277;-62
2024/03/28 03:11:24;;;;;;;3.80;3.50;;;;;;;8.77;100.00;99064.04;104492;1264;75012;-61
2024/03/28 03:13:52;;;;;;;5.60;3.50;;;;;;;8.81;100.00;99066.16;105063;1252;69146;-61
2024/03/28 03:16:19;;;;;;;5.20;3.50;;;;;;;8.80;100.00;99061.31;104537;1257;73030;-61
2024/03/28 03:18:49;;;;;;;3.90;3.60;;;;;;;8.81;100.00;99058.83;105066;1254;61372;-61
2024/03/28 03:21:16;;;;;;;4.80;3.80;;;;;;;8.86;100.00;99059.13;105198;1253;61364;-61
2024/03/28 03:23:49;;;;;;;4.80;3.60;;;;;;;8.78;100.00;99060.20;104868;1255;75401;-61
2024/03/28 03:26:25;;;;;;;3.70;3.30;;;;;;;8.71;100.00;99061.70;104781;1253;68536;-61
2024/03/28 03:34:35;;;;;;;3.90;3.50;;;;;;;8.58;100.00;99053.20;105194;1256;60929;-61
2024/03/28 03:37:03;;;;;;;4.70;3.60;;;;;;;8.56;100.00;99053.27;104723;1257;75390;-62
2024/03/28 03:39:30;;;;;;;4.10;3.20;;;;;;;8.61;100.00;99053.07;105049;1254;70032;-61
2024/03/28 03:41:57;;;;;;;3.70;3.40;;;;;;;8.65;100.00;99052.35;105277;1254;73282;-61
2024/03/28 03:44:25;;;;;;;3.60;3.30;;;;;;;8.69;100.00;99049.05;104612;1257;61100;-61
2024/03/28 03:46:51;;;;;;;4.70;3.70;;;;;;;8.79;100.00;99044.77;104670;1269;61320;-61
2024/03/28 03:49:19;;;;;;;3.40;3.10;;;;;;;8.84;100.00;99041.55;104932;1255;74892;-62
2024/03/28 03:51:46;;;;;;;4.80;3.40;;;;;;;8.81;100.00;99036.82;104779;1272;69987;-61
2024/03/28 03:54:13;;;;;;;3.40;3.10;;;;;;;8.82;100.00;99033.63;104903;1254;74814;-63
2024/03/28 03:56:40;;;;;;;4.00;3.70;;;;;;;8.76;100.00;99029.16;104610;1257;61670;-61
2024/03/28 03:59:08;;;;;;;3.50;3.20;;;;;;;8.73;100.00;99025.64;105916;1251;61381;-62
2024/03/28 04:01:34;;;;;;;4.00;3.60;;;;;;;8.73;100.00;99021.77;104409;1269;74766;-64
2024/03/28 04:04:02;;;;;;;7.90;3.40;;;;;;;8.75;100.00;99023.63;104970;1251;70384;-64
2024/03/28 04:06:30;;;;;;;5.90;3.20;;;;;;;8.77;100.00;99022.83;105240;1251;73340;-64
2024/03/28 04:08:57;;;;;;;3.40;3.10;;;;;;;8.79;100.00;99025.71;104685;1253;61391;-62
2024/03/28 04:11:24;;;;;;;3.10;2.90;;;;;;;8.92;99.92;99019.48;104972;1251;61307;-61
2024/03/28 04:13:51;;;;;;;3.40;3.10;;;;;;;9.01;99.34;99015.30;105421;1253;74326;-62
2024/03/28 04:16:18;;;;;;;3.40;3.10;;;;;;;9.05;98.67;99017.89;104600;1254;69023;-61
2024/03/28 04:18:45;;;;;;;3.30;3.00;;;;;;;9.07;98.02;99012.36;104812;1253;74456;-63
2024/03/28 04:21:12;;;;;;;3.10;2.80;;;;;;;9.01;98.11;99016.48;105350;1256;61374;-62
2024/03/28 04:23:39;;;;;;;4.70;3.20;;;;;;;9.03;97.81;99016.20;104711;1259;61323;-63
2024/03/28 04:26:06;;;;;;;4.30;3.00;;;;;;;8.98;97.92;99011.21;104908;1262;73282;-63
2024/03/28 04:28:33;;;;;;;5.60;3.30;;;;;;;8.89;98.84;99007.23;104944;1255;69835;-62
2024/03/28 04:31:00;;;;;;;3.40;3.10;;;;;;;8.98;98.81;99002.98;105146;1253;73034;-61
2024/03/28 04:33:27;;;;;;;3.30;3.00;;;;;;;8.96;98.43;99003.40;104813;1267;60861;-62
2024/03/28 04:35:54;;;;;;;3.70;3.40;;;;;;;8.98;98.13;99004.21;104839;1253;61617;-61
2024/03/28 04:38:21;;;;;;;3.30;3.00;;;;;;;8.94;98.04;99001.25;104908;1253;74340;-60
2024/03/28 04:40:48;;;;;;;4.20;3.20;;;;;;;8.98;98.51;98999.47;105198;1253;70009;-61
2024/03/28 04:43:15;;;;;;;3.10;2.80;;;;;;;9.02;98.08;98996.20;104895;1252;72320;-61
2024/03/28 04:45:42;;;;;;;3.50;3.20;;;;;;;9.01;98.42;99001.65;104879;1254;61311;-61
2024/03/28 04:48:09;;;;;;;3.70;3.40;;;;;;;9.05;97.99;99000.91;104606;1251;61348;-61
2024/03/28 04:50:36;;;;;;;3.50;2.90;;;;;;;9.17;96.28;99000.55;104627;1270;73232;-62
2024/03/28 04:53:04;;;;;;;5.20;3.30;;;;;;;9.23;95.60;98997.83;104858;1253;69505;-61
2024/03/28 04:55:31;;;;;;;5.30;3.20;;;;;;;9.25;94.73;98999.48;104798;1257;73483;-62
2024/03/28 04:57:58;;;;;;;4.00;3.40;;;;;;;9.33;93.87;98997.82;105263;1253;61379;-61
2024/03/28 05:00:25;;;;;;;3.00;2.70;;;;;;;9.38;93.50;98999.55;105434;1251;61209;-63
2024/03/28 05:02:52;;;;;;;3.90;3.00;;;;;;;9.38;93.00;98998.16;105411;1251;73444;-62
2024/03/28 05:05:19;;;;;;;3.90;3.30;;;;;;;9.40;93.01;98996.64;105050;1250;69593;-64
2024/03/28 05:07:46;;;;;;;5.40;3.40;;;;;;;9.41;92.31;98991.35;105629;1253;72646;-65
2024/03/28 05:10:13;;;;;;;4.10;3.30;;;;;;;9.43;91.88;98987.05;105035;1254;61262;-62
2024/03/28 05:12:40;;;;;;;3.60;3.00;;;;;;;9.43;91.22;98982.48;104584;1266;60658;-64
2024/03/28 05:15:07;;;;;;;4.30;3.20;;;;;;;9.45;90.37;98978.41;104954;1254;75633;-62
2024/03/28 05:17:35;;;;;;;4.20;2.80;;;;;;;9.47;89.84;98978.30;104387;1265;70896;-63
2024/03/28 05:20:03;;;;;;;4.00;3.20;;;;;;;9.49;88.98;98971.71;105383;1251;72874;-62
2024/03/28 05:22:31;;;;;;;3.30;3.00;;;;;;;9.50;87.97;98971.85;104508;1255;61361;-61
2024/03/28 05:24:59;;;;;;;3.40;3.10;;;;;;;9.54;87.53;98969.71;104836;1251;61263;-61
2024/03/28 05:27:26;;;;;;;4.40;3.30;;;;;;;9.61;87.22;98968.69;103420;1252;1532523;-60
2024/03/28 05:30:49;;;;;;;3.20;2.70;;;;;;;9.10;95.02;98966.05;101362;1292;600876;-61
2024/03/28 05:33:16;;;;;;;2.70;2.50;;;;;;;9.52;88.74;98962.30;103533;1274;61053;-63
2024/03/28 05:35:44;;;;;;;3.70;2.80;;;;;;;9.58;87.61;98960.27;103546;1282;60137;-63
2024/03/28 05:38:13;;;;;;;6.10;2.50;;;;;;;9.62;87.24;98959.17;103219;1277;73718;-62
2024/03/28 05:40:44;;;;;;;3.20;2.90;;;;;;;9.67;86.09;98961.70;103425;1272;69089;-64
2024/03/28 05:43:13;;;;;;;3.40;2.90;;;;;;;9.64;85.29;98953.14;104431;1257;71840;-60
2024/03/28 05:45:44;;;;;;;3.20;2.50;;;;;;;9.61;85.85;98950.31;104266;1260;61567;-62
2024/03/28 05:48:13;;;;;;;4.50;3.00;;;;;;;9.73;85.23;98952.66;104535;1258;59780;-61
2024/03/28 05:50:42;;;;;;;2.60;2.40;;;;;;;9.80;83.75;98950.23;104769;1261;74322;-63
2024/03/28 05:53:14;;;;;;;2.70;2.50;;;;;;;9.83;83.68;98942.91;104582;1260;71935;-64
2024/03/28 05:55:44;;;;;;;2.70;2.50;;;;;;;9.83;83.13;98937.83;104541;1274;72883;-62
2024/03/28 05:58:13;;;;;;;2.80;2.50;;;;;;;9.83;82.33;98940.45;104751;1259;61326;-62
2024/03/28 06:00:42;;;;;;;4.10;2.90;;;;;;;9.84;81.91;98938.83;104523;1253;60105;-61
2024/03/28 06:03:12;;;;;;;2.70;2.40;;;;;;;9.77;82.02;98942.52;104434;1262;74577;-63
2024/03/28 06:05:40;;;;;;;4.90;2.90;;;;;;;9.84;82.85;98940.73;104721;1254;68336;-60
2024/03/28 06:08:08;;;;;;;2.70;2.50;;;;;;;9.91;82.40;98932.48;104384;1256;74927;-63
2024/03/28 06:10:36;;;;;;;3.20;2.20;;;;;;;10.01;80.19;98943.76;105142;1254;60771;-64
2024/03/28 06:13:04;;;;;;;2.90;2.40;;;;;;;10.02;80.30;98936.33;104633;1256;60580;-65
2024/03/28 06:15:33;;;;;;;2.70;2.30;;;;;;;10.06;80.07;98935.92;105589;1254;74084;-64
2024/03/28 06:18:02;;;;;;;2.70;2.40;;;;;;;10.15;79.74;98924.60;105429;1254;70141;-61
2024/03/28 06:20:30;;;;;;;3.00;2.60;;;;;;;10.20;79.54;98919.66;104196;1260;72143;-64
2024/03/28 06:22:59;;;;;;;4.10;2.30;;;;;;;10.27;79.37;98916.83;105016;1259;62487;-61
2024/03/28 06:25:29;;;;;;;3.20;2.70;;;;;;;10.32;77.92;98908.69;105385;1254;60467;-63
2024/03/28 06:27:57;;;;;;;6.50;2.50;;;;;;;10.38;76.88;98901.71;104182;1262;75589;-60
2024/03/28 17:47:25;;;;;;;6.50;3.80;;;;;;;15.07;100.00;98319.34;101342;1293;601486;-67
2024/03/28 17:49:54;;;;;;;8.70;5.20;;;;;;;15.59;100.00;98319.62;104294;1263;61494;-65
2024/03/28 17:52:22;;;;;;;11.30;5.30;;;;;;;15.45;100.00;98316.89;104403;1263;59919;-63
2024/03/28 17:54:50;;;;;;;7.30;4.50;;;;;;;15.50;100.00;98319.84;104280;1261;75008;-63
2024/03/28 17:57:17;;;;;;;;;;;;;;;15.24;100.00;98323.80;103942;1261;70633;-62
2024/03/28 17:59:45;;;;;;;7.80;4.00;;;;;;;15.16;100.00;98322.48;104627;1263;73073;-62
2024/03/28 18:02:17;;;;;;;6.60;4.10;;;;;;;15.02;100.00;98318.38;103997;1261;1052433;-63
2024/03/28 18:04:48;;;;;;;7.00;4.10;;;;;;;14.90;100.00;98322.65;104595;1258;59717;-64
2024/03/28 18:07:16;;;;;;;7.40;3.90;;;;;;;14.84;100.00;98325.09;105164;1257;75885;-66
2024/03/28 18:09:47;;;;;;;11.50;4.10;;;;;;;15.02;100.00;98320.66;104590;1257;69458;-69
2024/03/28 18:12:16;;;;;;;7.60;3.60;;;;;;;14.74;100.00;98316.18;104107;1262;72674;-70
2024/03/28 18:14:44;;;;;;;5.30;4.00;;;;;;;14.73;100.00;98323.14;104499;1273;61612;-68
2024/03/28 18:17:11;;;;;;;5.50;3.70;;;;;;;14.79;100.00;98324.45;104708;1256;60555;-67
2024/03/28 18:19:39;;;;;;;5.20;4.00;;;;;;;14.87;100.00;98317.63;104908;1254;73932;-69
2024/03/28 18:22:09;;;;;;;4.90;4.20;;;;;;;14.80;100.00;98316.58;104696;1257;70497;-71
2024/03/28 18:24:37;;;;;;;7.60;4.00;;;;;;;14.61;100.00;98314.92;104824;1251;72817;-67
2024/03/28 18:27:05;;;;;;;5.50;3.60;;;;;;;14.53;100.00;98313.43;104690;1256;61467;-68
2024/03/28 18:29:32;;;;;;;12.40;3.90;;;;;;;14.62;100.00;98311.04;104620;1270;60501;-66
2024/03/28 18:32:00;;;;;;;7.10;3.90;;;;;;;14.60;100.00;98307.81;104564;1256;75584;-68
2024/03/28 18:34:28;;;;;;;5.40;4.00;;;;;;;14.51;100.00;98311.34;104822;1252;71481;-67
2024/03/28 18:36:55;;;;;;;6.20;3.60;;;;;;;14.48;100.00;98317.94;104945;1254;71608;-65
2024/03/28 18:39:23;;;;;;;7.00;4.20;;;;;;;14.70;100.00;98316.02;105473;1257;61862;-66
2024/03/28 18:41:51;;;;;;;12.80;4.40;;;;;;;14.74;100.00;98314.77;104602;1259;60911;-70
2024/03/28 18:44:18;;;;;;;9.70;4.30;;;;;;;14.78;100.00;98317.62;104644;1251;74393;-68
2024/03/28 18:46:46;;;;;;;13.20;5.00;;;;;;;14.87;100.00;98321.67;104637;1256;69706;-70
2024/03/28 18:49:14;;;;;;;11.80;4.90;;;;;;;14.61;100.00;98316.21;104788;1256;72478;-67
2024/03/28 18:51:41;;;;;;;10.90;4.50;;;;;;;14.57;100.00;98308.86;105065;1254;62004;-68
2024/03/28 18:54:09;;;;;;;;;;;;;;;14.52;100.00;98305.44;104852;1251;62047;-68
2024/03/28 18:56:37;;;;;;;14.40;4.40;;;;;;;14.56;100.00;98301.64;105058;1254;74209;-73
2024/03/28 18:59:04;;;;;;;;;;;;;;;14.60;100.00;98316.13;104932;1254;69783;-69
2024/03/28 19:01:32;;;;;;;11.00;4.50;;;;;;;14.58;100.00;98319.21;104683;1259;72936;-67
2024/03/28 19:04:00;;;;;;;15.90;4.60;;;;;;;14.61;100.00;98312.34;104996;1256;61804;-66
2024/03/28 19:06:28;;;;;;;14.30;4.60;;;;;;;14.66;100.00;98314.77;104791;1254;60773;-67
2024/03/28 19:08:56;;;;;;;18.50;4.30;;;;;;;14.66;100.00;98319.49;104549;1257;74253;-64
2024/03/28 19:11:23;;;;;;;11.30;4.20;;;;;;;14.84;100.00;98320.52;105217;1253;70156;-66
2024/03/28 19:13:51;;;;;;;15.50;4.00;;;;;;;14.82;100.00;98319.65;105083;1253;72509;-66
2024/03/28 19:16:18;;;;;;;15.70;4.20;;;;;;;14.89;100.00;98321.02;105378;1256;61209;-67
2024/03/28 19:18:46;;;;;;;12.20;4.50;;;;;;;14.96;100.00;98325.33;104891;1256;60565;-66
2024/03/28 19:21:14;;;;;;;18.20;4.50;;;;;;;14.90;100.00;98335.91;104792;1256;74474;-65
2024/03/28 19:23:41;;;;;;;13.10;4.80;;;;;;;14.95;100.00;98338.83;105454;1254;70781;-70
2024/03/28 19:26:09;;;;;;;;;;;;;;;14.88;100.00;98347.17;105191;1257;72446;-68
2024/03/28 19:28:37;;;;;;;17.30;4.10;;;;;;;14.94;100.00;98349.00;105056;1253;61649;-68
2024/03/28 19:31:04;;;;;;;16.50;4.90;;;;;;;15.00;100.00;98349.88;105055;1251;60525;-65
2024/03/28 19:33:33;;;;;;;12.50;4.70;;;;;;;14.96;100.00;98361.71;105253;1256;75090;-69
2024/03/28 19:36:01;;;;;;;17.70;4.80;;;;;;;14.90;100.00;98365.73;105320;1260;69733;-66
2024/03/28 19:38:28;;;;;;;14.40;4.80;;;;;;;14.77;100.00;98370.11;104804;1257;72652;-67
2024/03/28 19:40:57;;;;;;;;;;;;;;;14.69;100.00;98375.20;104808;1267;60400;-67
2024/03/28 19:43:26;;;;;;;14.50;4.70;;;;;;;14.50;100.00;98379.45;104518;1254;60552;-68
2024/03/28 19:45:54;;;;;;;17.90;5.50;;;;;;;14.45;100.00;98380.70;104376;1257;74482;-68
2024/03/28 19:48:21;;;;;;;16.30;4.50;;;;;;;14.41;100.00;98387.02;104488;1255;69761;-62
2024/03/28 19:50:49;;;;;;;17.10;5.20;;;;;;;14.37;100.00;98388.94;104406;1272;71873;-65
2024/03/28 19:53:16;;;;;;;15.60;5.60;;;;;;;14.14;100.00;98396.38;104696;1257;60673;-63
2024/03/28 19:55:44;;;;;;;18.30;5.00;;;;;;;13.96;100.00;98405.63;104689;1256;60540;-63
2024/03/28 19:58:15;;;;;;;17.10;5.00;;;;;;;13.88;100.00;98391.45;104635;1264;75070;-62
2024/03/28 20:00:43;;;;;;;16.30;4.70;;;;;;;13.91;100.00;98403.02;104869;1254;69896;-64
2024/03/28 20:03:11;;;;;;;20.00;5.50;;;;;;;13.86;100.00;98406.06;104721;1256;73213;-63
2024/03/28 20:05:39;;;;;;;19.10;5.20;;;;;;;13.91;100.00;98404.67;104471;1251;62562;-63
2024/03/28 20:08:09;;;;;;;15.30;5.40;;;;;;;13.91;100.00;98405.69;104821;1257;60597;-64
2024/03/28 20:10:36;;;;;;;;;;;;;;;13.92;100.00;98404.93;104922;1254;73636;-63
2024/03/28 20:13:04;;;;;;;17.90;5.90;;;;;;;13.90;100.00;98407.55;104894;1256;71973;-62
2024/03/28 20:15:32;;;;;;;14.40;5.50;;;;;;;13.81;100.00;98399.56;104739;1264;72834;-61
2024/03/28 20:18:00;;;;;;;21.40;6.20;;;;;;;13.68;100.00;98397.89;104601;1263;62864;-62
2024/03/28 20:20:28;;;;;;;15.50;5.40;;;;;;;13.68;100.00;98399.64;104990;1253;60652;-63
2024/03/28 20:22:55;;;;;;;17.50;5.40;;;;;;;13.61;100.00;98403.01;104619;1254;74009;-62
2024/03/28 20:25:23;;;;;;;17.90;6.40;;;;;;;13.58;100.00;98414.54;104733;1256;70582;-62
2024/03/28 20:27:50;;;;;;;15.60;5.10;;;;;;;13.61;100.00;98418.86;104528;1257;72954;-62
2024/03/28 20:30:18;;;;;;;;;;;;;;;13.76;100.00;98420.73;104896;1256;62601;-62
2024/03/28 20:32:47;;;;;;;16.70;5.10;;;;;;;13.69;100.00;98428.14;104487;1257;62592;-62
2024/03/28 20:35:15;;;;;;;20.60;6.10;;;;;;;13.53;100.00;98422.59;104757;1256;73635;-63
2024/03/28 20:37:43;;;;;;;11.20;5.30;;;;;;;13.58;100.00;98418.23;104523;1259;70636;-62
2024/03/28 20:40:11;;;;;;;12.50;4.50;;;;;;;13.62;100.00;98416.13;105130;1256;71384;-63
2024/03/28 20:42:39;;;;;;;11.40;4.20;;;;;;;13.54;100.00;98417.77;104719;1254;60894;-62
2024/03/28 20:45:08;;;;;;;8.10;4.10;;;;;;;13.64;100.00;98422.71;104879;1256;59866;-63
2024/03/28 20:47:36;;;;;;;8.50;3.50;;;;;;;13.75;100.00;98412.52;104357;1258;72808;-63
2024/03/28 20:50:04;;;;;;;7.50;3.20;;;;;;;13.79;100.00;98412.54;104663;1257;68524;-63
2024/03/28 20:52:32;;;;;;;8.30;3.10;;;;;;;13.84;100.00;98407.48;104746;1257;72468;-63
2024/03/28 20:55:01;;;;;;;;;;;;;;;13.53;100.00;98402.73;104706;1256;61569;-63
2024/03/28 20:57:28;;;;;;;9.30;3.20;;;;;;;13.40;100.00;98402.14;104814;1253;60127;-63
2024/03/28 20:59:56;;;;;;;6.50;2.70;;;;;;;13.41;100.00;98402.41;104619;1254;73651;-63
2024/03/28 21:02:24;;;;;;;;;;;;;;;13.41;100.00;98400.98;105441;1257;68686;-64
2024/03/28 21:04:51;;;;;;;6.10;2.70;;;;;;;13.55;100.00;98400.45;105349;1254;72594;-63
2024/03/28 21:12:52;;;;;;;4.10;2.10;;;;;;;14.66;100.00;98417.38;104729;1256;72657;-62
2024/03/28 21:15:20;;;;;;;7.90;3.00;;;;;;;14.53;100.00;98410.41;104797;1254;69848;-63
2024/03/28 21:17:48;;;;;;;8.60;3.30;;;;;;;14.55;100.00;98424.35;104640;1256;72813;-63
2024/03/28 21:20:18;;;;;;;6.60;2.90;;;;;;;14.42;100.00;98433.33;104916;1254;62560;-63
2024/03/28 21:22:45;;;;;;;4.90;2.80;;;;;;;14.29;100.00;98431.30;104457;1257;60629;-62
2024/03/28 21:25:14;;;;;;;8.10;3.10;;;;;;;14.23;100.00;98426.89;104814;1252;73779;-62
2024/03/28 21:27:42;;;;;;;6.40;3.40;;;;;;;14.16;100.00;98427.02;105576;1256;69467;-62
2024/03/28 21:30:12;;;;;;;6.30;2.90;;;;;;;14.12;100.00;98432.48;105079;1255;73729;-62
2024/03/28 21:32:40;;;;;;;9.30;3.60;;;;;;;14.18;100.00;98440.48;105238;1257;61479;-62
2024/03/28 21:35:08;;;;;;;7.00;3.10;;;;;;;14.24;100.00;98445.13;104785;1256;60412;-63
2024/03/28 21:37:36;;;;;;;9.30;3.60;;;;;;;13.22;100.00;98448.27;105259;1251;73642;-63
2024/03/28 21:40:05;;;;;;;;;;;;;;;13.53;100.00;98455.02;106059;1251;69476;-63
2024/03/28 21:42:32;;;;;;;6.90;3.10;;;;;;;13.80;100.00;98459.36;105433;1255;71514;-63
2024/03/28 21:45:00;;;;;;;;;;;;;;;13.15;100.00;98462.67;105527;1254;61405;-62
2024/03/28 21:47:41;;;;;;;11.20;4.00;;;;;;;13.06;100.00;98471.77;104589;1253;60444;-62
2024/03/28 21:50:09;;;;;;;8.20;3.50;;;;;;;13.24;100.00;98472.97;104966;1256;74406;-62
2024/03/28 21:52:37;;;;;;;9.40;3.70;;;;;;;13.17;100.00;98476.42;104556;1269;70035;-62
2024/03/28 21:55:05;;;;;;;7.50;3.70;;;;;;;13.31;100.00;98479.67;104701;1254;72446;-63
2024/03/28 21:57:32;;;;;;;10.80;4.60;;;;;;;13.50;100.00;98486.57;104532;1252;62552;-62
2024/03/28 22:00:00;;;;;;;;;;;;;;;12.87;100.00;98486.48;104401;1254;61313;-62
2024/03/28 22:02:28;;;;;;;9.20;5.00;;;;;;;12.68;100.00;98486.92;104780;1257;75021;-62
2024/03/28 22:04:55;;;;;;;12.40;4.80;;;;;;;12.65;100.00;98483.30;104352;1273;69516;-62
2024/03/28 22:07:24;;;;;;;11.10;4.50;;;;;;;12.63;100.00;98485.86;104781;1257;72613;-62
2024/03/28 22:09:52;;;;;;;9.40;4.40;;;;;;;12.53;100.00;98491.84;104638;1265;62573;-63
2024/03/28 22:12:20;;;;;;;9.70;4.10;;;;;;;12.48;100.00;98498.48;104576;1251;61343;-64
2024/03/28 22:14:47;;;;;;;7.70;4.20;;;;;;;12.57;100.00;98508.98;104578;1259;74864;-62
2024/03/28 22:17:15;;;;;;;7.90;4.20;;;;;;;12.52;100.00;98512.81;104290;1267;69429;-62
2024/03/28 22:19:43;;;;;;;;;;;;;;;12.55;100.00;98513.33;104556;1266;72446;-63
2024/03/28 22:22:10;;;;;;;11.10;4.40;;;;;;;12.32;100.00;98502.73;104386;1256;61339;-63
2024/03/28 22:24:38;;;;;;;10.80;4.30;;;;;;;12.31;100.00;98519.89;104344;1263;61359;-63
2024/03/28 22:27:05;;;;;;;;;;;;;;;12.27;100.00;98518.39;104734;1251;74502;-63
2024/03/28 22:29:33;;;;;;;15.20;5.40;;;;;;;12.34;100.00;98521.27;105041;1260;69506;-63
2024/03/28 22:32:00;;;;;;;8.70;4.30;;;;;;;12.13;100.00;98519.52;104841;1254;72877;-63
2024/03/28 22:34:29;;;;;;;10.20;5.10;;;;;;;12.03;100.00;98525.95;104426;1259;61317;-63
2024/03/28 22:36:56;;;;;;;9.20;4.80;;;;;;;12.01;100.00;98524.32;104540;1264;60936;-63
2024/03/28 22:39:24;;;;;;;10.90;4.90;;;;;;;11.84;100.00;98524.21;104482;1251;74409;-63
2024/03/28 22:41:54;;;;;;;11.90;5.80;;;;;;;11.79;100.00;98525.77;104484;1260;69145;-63
2024/03/28 22:44:21;;;;;;;9.60;4.70;;;;;;;11.78;100.00;98523.02;104804;1272;71680;-66
2024/03/28 22:46:49;;;;;;;8.40;4.60;;;;;;;11.78;100.00;98521.92;105010;1255;61813;-63
2024/03/28 22:49:16;;;;;;;;;;;;;;;11.84;100.00;98524.73;104714;1256;61288;-63
2024/03/28 22:51:44;;;;;;;8.10;4.70;;;;;;;11.86;100.00;98525.96;104576;1266;74901;-63
2024/03/28 22:54:13;;;;;;;10.50;4.70;;;;;;;11.82;100.00;98527.50;104449;1256;69201;-62